Aviation Digital Data Service (ADDS)

Output produced by METARs form (1552 UTC 24 August 2019)
found at http://www.aviationweather.gov/metar/data/
 
METAR text: YSCB 241530Z AUTO 35007KT 9999 // NCD 04/M02 Q1015 RF00.0/000.0
Conditions at: YSCB (CANBERRA (CIV/MI, AU) observed 1530 UTC 24 August 2019
Temperature: 4.0°C (39°F)
Dewpoint: -2.0°C (28°F) [RH = 65%]
Pressure (altimeter): 29.97 inches Hg (1015.0 mb)
Winds: from the N (350 degrees) at 8 MPH (7 knots; 3.6 m/s)
Visibility: 6 or more miles (10+ km)
Ceiling: at least 12,000 feet AGL
Clouds: sky clear below 12,000 feet AGL
Weather: no significant weather observed at this time

METAR text: YSCB 241500Z AUTO 00000KT 9999 // NCD 06/M01 Q1015
Conditions at: YSCB (CANBERRA (CIV/MI, AU) observed 1500 UTC 24 August 2019
Temperature: 6.0°C (43°F)
Dewpoint: -1.0°C (30°F) [RH = 61%]
Pressure (altimeter): 29.97 inches Hg (1015.0 mb)
Winds: calm
Visibility: 6 or more miles (10+ km)
Ceiling: at least 12,000 feet AGL
Clouds: sky clear below 12,000 feet AGL
Weather: no significant weather observed at this time

METAR text: YSCB 241430Z AUTO 00000KT 9999 // NCD 07/M01 Q1016 RF00.0/000.0
Conditions at: YSCB (CANBERRA (CIV/MI, AU) observed 1430 UTC 24 August 2019
Temperature: 7.0°C (45°F)
Dewpoint: -1.0°C (30°F) [RH = 57%]
Pressure (altimeter): 30.00 inches Hg (1016.0 mb)
Winds: calm
Visibility: 6 or more miles (10+ km)
Ceiling: at least 12,000 feet AGL
Clouds: sky clear below 12,000 feet AGL
Weather: no significant weather observed at this time

METAR text: YSCB 241400Z AUTO 00000KT 9999 // NCD 06/M00 Q1016
Conditions at: YSCB (CANBERRA (CIV/MI, AU) observed 1400 UTC 24 August 2019
Temperature: 6.0°C (43°F)
Dewpoint: 0.0°C (32°F) [RH = 65%]
Pressure (altimeter): 30.00 inches Hg (1016.0 mb)
Winds: calm
Visibility: 6 or more miles (10+ km)
Ceiling: at least 12,000 feet AGL
Clouds: sky clear below 12,000 feet AGL
Weather: no significant weather observed at this time

METAR text: YSCB 241330Z AUTO 31007KT 9999 // NCD 06/M01 Q1016 RF00.0/000.0
Conditions at: YSCB (CANBERRA (CIV/MI, AU) observed 1330 UTC 24 August 2019
Temperature: 6.0°C (43°F)
Dewpoint: -1.0°C (30°F) [RH = 61%]
Pressure (altimeter): 30.00 inches Hg (1016.0 mb)
Winds: from the NW (310 degrees) at 8 MPH (7 knots; 3.6 m/s)
Visibility: 6 or more miles (10+ km)
Ceiling: at least 12,000 feet AGL
Clouds: sky clear below 12,000 feet AGL
Weather: no significant weather observed at this time

METAR text: YSCB 241300Z AUTO 29008KT 9999 // NCD 07/M01 Q1016
Conditions at: YSCB (CANBERRA (CIV/MI, AU) observed 1300 UTC 24 August 2019
Temperature: 7.0°C (45°F)
Dewpoint: -1.0°C (30°F) [RH = 57%]
Pressure (altimeter): 30.00 inches Hg (1016.0 mb)
Winds: from the WNW (290 degrees) at 9 MPH (8 knots; 4.1 m/s)
Visibility: 6 or more miles (10+ km)
Ceiling: at least 12,000 feet AGL
Clouds: sky clear below 12,000 feet AGL
Weather: no significant weather observed at this time

METAR text: YSCB 241230Z AUTO 30005KT 9999 // NCD 07/M00 Q1016 RF00.0/000.0
Conditions at: YSCB (CANBERRA (CIV/MI, AU) observed 1230 UTC 24 August 2019
Temperature: 7.0°C (45°F)
Dewpoint: 0.0°C (32°F) [RH = 61%]
Pressure (altimeter): 30.00 inches Hg (1016.0 mb)
Winds: from the WNW (300 degrees) at 6 MPH (5 knots; 2.6 m/s)
Visibility: 6 or more miles (10+ km)
Ceiling: at least 12,000 feet AGL
Clouds: sky clear below 12,000 feet AGL
Weather: no significant weather observed at this time

METAR text: YSCB 241200Z AUTO 31007KT 9999 // NCD 08/M01 Q1016
Conditions at: YSCB (CANBERRA (CIV/MI, AU) observed 1200 UTC 24 August 2019
Temperature: 8.0°C (46°F)
Dewpoint: -1.0°C (30°F) [RH = 53%]
Pressure (altimeter): 30.00 inches Hg (1016.0 mb)
Winds: from the NW (310 degrees) at 8 MPH (7 knots; 3.6 m/s)
Visibility: 6 or more miles (10+ km)
Ceiling: at least 12,000 feet AGL
Clouds: sky clear below 12,000 feet AGL
Weather: no significant weather observed at this time

METAR text: YSCB 241130Z AUTO 31006KT 9999 // NCD 07/M01 Q1016 RF00.0/000.0
Conditions at: YSCB (CANBERRA (CIV/MI, AU) observed 1130 UTC 24 August 2019
Temperature: 7.0°C (45°F)
Dewpoint: -1.0°C (30°F) [RH = 57%]
Pressure (altimeter): 30.00 inches Hg (1016.0 mb)
Winds: from the NW (310 degrees) at 7 MPH (6 knots; 3.1 m/s)
Visibility: 6 or more miles (10+ km)
Ceiling: at least 12,000 feet AGL
Clouds: sky clear below 12,000 feet AGL
Weather: no significant weather observed at this time

METAR text: YSCB 241100Z AUTO 33005KT 9999 // NCD 07/M01 Q1016
Conditions at: YSCB (CANBERRA (CIV/MI, AU) observed 1100 UTC 24 August 2019
Temperature: 7.0°C (45°F)
Dewpoint: -1.0°C (30°F) [RH = 57%]
Pressure (altimeter): 30.00 inches Hg (1016.0 mb)
Winds: from the NNW (330 degrees) at 6 MPH (5 knots; 2.6 m/s)
Visibility: 6 or more miles (10+ km)
Ceiling: at least 12,000 feet AGL
Clouds: sky clear below 12,000 feet AGL
Weather: no significant weather observed at this time

METAR text: YSCB 241030Z AUTO 33005KT 9999 // NCD 08/00 Q1016 RF00.0/000.0
Conditions at: YSCB (CANBERRA (CIV/MI, AU) observed 1030 UTC 24 August 2019
Temperature: 8.0°C (46°F)
Dewpoint: 0.0°C (32°F) [RH = 57%]
Pressure (altimeter): 30.00 inches Hg (1016.0 mb)
Winds: from the NNW (330 degrees) at 6 MPH (5 knots; 2.6 m/s)
Visibility: 6 or more miles (10+ km)
Ceiling: at least 12,000 feet AGL
Clouds: sky clear below 12,000 feet AGL
Weather: no significant weather observed at this time

METAR text: YSCB 241000Z AUTO 33004KT 9999 // NCD 08/00 Q1016
Conditions at: YSCB (CANBERRA (CIV/MI, AU) observed 1000 UTC 24 August 2019
Temperature: 8.0°C (46°F)
Dewpoint: 0.0°C (32°F) [RH = 57%]
Pressure (altimeter): 30.00 inches Hg (1016.0 mb)
Winds: from the NNW (330 degrees) at 5 MPH (4 knots; 2.1 m/s)
Visibility: 6 or more miles (10+ km)
Ceiling: at least 12,000 feet AGL
Clouds: sky clear below 12,000 feet AGL
Weather: no significant weather observed at this time

METAR text: YSCB 240930Z AUTO 33007KT 9999 // NCD 09/M00 Q1016 RF00.0/000.0
Conditions at: YSCB (CANBERRA (CIV/MI, AU) observed 0930 UTC 24 August 2019
Temperature: 9.0°C (48°F)
Dewpoint: 0.0°C (32°F) [RH = 53%]
Pressure (altimeter): 30.00 inches Hg (1016.0 mb)
Winds: from the NNW (330 degrees) at 8 MPH (7 knots; 3.6 m/s)
Visibility: 6 or more miles (10+ km)
Ceiling: at least 12,000 feet AGL
Clouds: sky clear below 12,000 feet AGL
Weather: no significant weather observed at this time

METAR text: YSCB 240900Z AUTO 34008KT 9999 // NCD 11/00 Q1016
Conditions at: YSCB (CANBERRA (CIV/MI, AU) observed 0900 UTC 24 August 2019
Temperature: 11.0°C (52°F)
Dewpoint: 0.0°C (32°F) [RH = 47%]
Pressure (altimeter): 30.00 inches Hg (1016.0 mb)
Winds: from the NNW (340 degrees) at 9 MPH (8 knots; 4.1 m/s)
Visibility: 6 or more miles (10+ km)
Ceiling: at least 12,000 feet AGL
Clouds: sky clear below 12,000 feet AGL
Weather: no significant weather observed at this time

METAR text: YSCB 240830Z AUTO 33010KT 9999 // NCD 11/00 Q1016 RF00.0/000.0
Conditions at: YSCB (CANBERRA (CIV/MI, AU) observed 0830 UTC 24 August 2019
Temperature: 11.0°C (52°F)
Dewpoint: 0.0°C (32°F) [RH = 47%]
Pressure (altimeter): 30.00 inches Hg (1016.0 mb)
Winds: from the NNW (330 degrees) at 12 MPH (10 knots; 5.1 m/s)
Visibility: 6 or more miles (10+ km)
Ceiling: at least 12,000 feet AGL
Clouds: sky clear below 12,000 feet AGL
Weather: no significant weather observed at this time

METAR text: YSCB 240800Z AUTO 33010KT 9999 // NCD 12/01 Q1016
Conditions at: YSCB (CANBERRA (CIV/MI, AU) observed 0800 UTC 24 August 2019
Temperature: 12.0°C (54°F)
Dewpoint: 1.0°C (34°F) [RH = 47%]
Pressure (altimeter): 30.00 inches Hg (1016.0 mb)
Winds: from the NNW (330 degrees) at 12 MPH (10 knots; 5.1 m/s)
Visibility: 6 or more miles (10+ km)
Ceiling: at least 12,000 feet AGL
Clouds: sky clear below 12,000 feet AGL
Weather: no significant weather observed at this time

METAR text: YSCB 240730Z AUTO 31013KT 9999 // NCD 13/01 Q1016 RF00.0/000.0
Conditions at: YSCB (CANBERRA (CIV/MI, AU) observed 0730 UTC 24 August 2019
Temperature: 13.0°C (55°F)
Dewpoint: 1.0°C (34°F) [RH = 44%]
Pressure (altimeter): 30.00 inches Hg (1016.0 mb)
Winds: from the NW (310 degrees) at 15 MPH (13 knots; 6.7 m/s)
Visibility: 6 or more miles (10+ km)
Ceiling: at least 12,000 feet AGL
Clouds: sky clear below 12,000 feet AGL
Weather: no significant weather observed at this time

METAR text: YSCB 240700Z AUTO 32016KT 9999 // NCD 14/01 Q1016
Conditions at: YSCB (CANBERRA (CIV/MI, AU) observed 0700 UTC 24 August 2019
Temperature: 14.0°C (57°F)
Dewpoint: 1.0°C (34°F) [RH = 41%]
Pressure (altimeter): 30.00 inches Hg (1016.0 mb)
Winds: from the NW (320 degrees) at 18 MPH (16 knots; 8.2 m/s)
Visibility: 6 or more miles (10+ km)
Ceiling: at least 12,000 feet AGL
Clouds: sky clear below 12,000 feet AGL
Weather: no significant weather observed at this time

METAR text: YSCB 240630Z AUTO 31014KT 9999 // NCD 15/01 Q1016 RF00.0/000.0
Conditions at: YSCB (CANBERRA (CIV/MI, AU) observed 0630 UTC 24 August 2019
Temperature: 15.0°C (59°F)
Dewpoint: 1.0°C (34°F) [RH = 39%]
Pressure (altimeter): 30.00 inches Hg (1016.0 mb)
Winds: from the NW (310 degrees) at 16 MPH (14 knots; 7.2 m/s)
Visibility: 6 or more miles (10+ km)
Ceiling: at least 12,000 feet AGL
Clouds: sky clear below 12,000 feet AGL
Weather: no significant weather observed at this time

METAR text: YSCB 240600Z AUTO 31016KT 9999 // NCD 16/00 Q1016
Conditions at: YSCB (CANBERRA (CIV/MI, AU) observed 0600 UTC 24 August 2019
Temperature: 16.0°C (61°F)
Dewpoint: 0.0°C (32°F) [RH = 34%]
Pressure (altimeter): 30.00 inches Hg (1016.0 mb)
Winds: from the NW (310 degrees) at 18 MPH (16 knots; 8.2 m/s)
Visibility: 6 or more miles (10+ km)
Ceiling: at least 12,000 feet AGL
Clouds: sky clear below 12,000 feet AGL
Weather: no significant weather observed at this time

METAR text: YSCB 240530Z AUTO 30014KT 9999 // NCD 16/00 Q1016 RF00.0/000.0
Conditions at: YSCB (CANBERRA (CIV/MI, AU) observed 0530 UTC 24 August 2019
Temperature: 16.0°C (61°F)
Dewpoint: 0.0°C (32°F) [RH = 34%]
Pressure (altimeter): 30.00 inches Hg (1016.0 mb)
Winds: from the WNW (300 degrees) at 16 MPH (14 knots; 7.2 m/s)
Visibility: 6 or more miles (10+ km)
Ceiling: at least 12,000 feet AGL
Clouds: sky clear below 12,000 feet AGL
Weather: no significant weather observed at this time

METAR text: YSCB 240500Z AUTO 31017KT 9999 // NCD 16/M00 Q1016
Conditions at: YSCB (CANBERRA (CIV/MI, AU) observed 0500 UTC 24 August 2019
Temperature: 16.0°C (61°F)
Dewpoint: 0.0°C (32°F) [RH = 34%]
Pressure (altimeter): 30.00 inches Hg (1016.0 mb)
Winds: from the NW (310 degrees) at 20 MPH (17 knots; 8.7 m/s)
Visibility: 6 or more miles (10+ km)
Ceiling: at least 12,000 feet AGL
Clouds: sky clear below 12,000 feet AGL
Weather: no significant weather observed at this time

METAR text: YSCB 240430Z AUTO 31019KT 9999 // NCD 17/M01 Q1016 RF00.0/000.0 USE TAF FOR ARRIVALS
Conditions at: YSCB (CANBERRA (CIV/MI, AU) observed 0430 UTC 24 August 2019
Temperature: 17.0°C (63°F)
Dewpoint: -1.0°C (30°F) [RH = 29%]
Pressure (altimeter): 30.00 inches Hg (1016.0 mb)
Winds: from the NW (310 degrees) at 22 MPH (19 knots; 9.8 m/s)
Visibility: 6 or more miles (10+ km)
Ceiling: at least 12,000 feet AGL
Clouds: sky clear below 12,000 feet AGL
Weather: VA  (volcanic ash)

METAR text: YSCB 240400Z AUTO 31017KT 9999 // NCD 17/M01 Q1016 FM0400 MOD TURB BLW 5000FT
Conditions at: YSCB (CANBERRA (CIV/MI, AU) observed 0400 UTC 24 August 2019
Temperature: 17.0°C (63°F)
Dewpoint: -1.0°C (30°F) [RH = 29%]
Pressure (altimeter): 30.00 inches Hg (1016.0 mb)
Winds: from the NW (310 degrees) at 20 MPH (17 knots; 8.7 m/s)
Visibility: 6 or more miles (10+ km)
Ceiling: at least 12,000 feet AGL
Clouds: sky clear below 12,000 feet AGL
Weather: no significant weather observed at this time

METAR text: YSCB 240336Z AUTO 31017G27KT 9999 // NCD 17/01 Q1016 RF00/0/000/0 FM0336 MOD TURB BLW 5000FT RMK USE TAF FOR ARRIVALS AFTER 0430Z
Conditions at: YSCB (CANBERRA (CIV/MI, AU) observed 0336 UTC 24 August 2019
Temperature: 17.0°C (63°F)
Dewpoint: 1.0°C (34°F) [RH = 34%]
Pressure (altimeter): 30.00 inches Hg (1016.0 mb)
Winds: from the NW (310 degrees) at 20 MPH (17 knots; 8.7 m/s)
gusting to 31 MPH (27 knots; 13.9 m/s)
Visibility: 6 or more miles (10+ km)
Ceiling: at least 12,000 feet AGL
Clouds: sky clear below 12,000 feet AGL
Weather: no significant weather observed at this time

METAR text: YSCB 240300Z AUTO 30015KT 9999 // NCD 17/00 Q1017 FM0300 MOD TURB BLW 5000FT
Conditions at: YSCB (CANBERRA (CIV/MI, AU) observed 0300 UTC 24 August 2019
Temperature: 17.0°C (63°F)
Dewpoint: 0.0°C (32°F) [RH = 32%]
Pressure (altimeter): 30.03 inches Hg (1017.0 mb)
Winds: from the WNW (300 degrees) at 17 MPH (15 knots; 7.7 m/s)
Visibility: 6 or more miles (10+ km)
Ceiling: at least 12,000 feet AGL
Clouds: sky clear below 12,000 feet AGL
Weather: no significant weather observed at this time

METAR text: YSCB 240230Z AUTO 33018KT 9999 // NCD 16/01 Q1018 RF00.0/000.0 FM0230 31016G26KT CAVOK FM0230 MOD TURB BLW 5000FT RMK USE TAF FOR ARRIVALS AFTER 0430Z
Conditions at: YSCB (CANBERRA (CIV/MI, AU) observed 0230 UTC 24 August 2019
Temperature: 16.0°C (61°F)
Dewpoint: 1.0°C (34°F) [RH = 36%]
Pressure (altimeter): 30.06 inches Hg (1018.0 mb)
Winds: from the NNW (330 degrees) at 21 MPH (18 knots; 9.3 m/s)
Visibility: 6 or more miles (10+ km)
Ceiling: at least 12,000 feet AGL
Clouds: sky clear below 12,000 feet AGL
Weather: no significant weather observed at this time

METAR text: YSCB 240200Z AUTO 32018KT 9999 // NCD 16/01 Q1018 FM0200 MOD TURB BLW 5000FT
Conditions at: YSCB (CANBERRA (CIV/MI, AU) observed 0200 UTC 24 August 2019
Temperature: 16.0°C (61°F)
Dewpoint: 1.0°C (34°F) [RH = 36%]
Pressure (altimeter): 30.06 inches Hg (1018.0 mb)
Winds: from the NW (320 degrees) at 21 MPH (18 knots; 9.3 m/s)
Visibility: 6 or more miles (10+ km)
Ceiling: at least 12,000 feet AGL
Clouds: sky clear below 12,000 feet AGL
Weather: no significant weather observed at this time

METAR text: YSCB 240130Z AUTO 33015KT 9999 // NCD 16/01 Q1019 RF00.0/000.0 FM0130 MOD/SEV TURB BLW 5000FT TL0200 FM0200 MOD TURB BLW 5000FT
Conditions at: YSCB (CANBERRA (CIV/MI, AU) observed 0130 UTC 24 August 2019
Temperature: 16.0°C (61°F)
Dewpoint: 1.0°C (34°F) [RH = 36%]
Pressure (altimeter): 30.09 inches Hg (1019.0 mb)
Winds: from the NNW (330 degrees) at 17 MPH (15 knots; 7.7 m/s)
Visibility: 6 or more miles (10+ km)
Ceiling: at least 12,000 feet AGL
Clouds: sky clear below 12,000 feet AGL
Weather: no significant weather observed at this time

METAR text: YSCB 240100Z AUTO 32014KT 9999 // NCD 14/M01 Q1019 FM0100 MOD/SEV TURB BLW 5000FT TL0300 FM0300 MOD TURB BLW 5000FT
Conditions at: YSCB (CANBERRA (CIV/MI, AU) observed 0100 UTC 24 August 2019
Temperature: 14.0°C (57°F)
Dewpoint: -1.0°C (30°F) [RH = 36%]
Pressure (altimeter): 30.09 inches Hg (1019.0 mb)
Winds: from the NW (320 degrees) at 16 MPH (14 knots; 7.2 m/s)
Visibility: 6 or more miles (10+ km)
Ceiling: at least 12,000 feet AGL
Clouds: sky clear below 12,000 feet AGL
Weather: no significant weather observed at this time

METAR text: YSCB 240030Z AUTO 33013KT 9999 // NCD 14/M01 Q1020 RF00.0/000.0 FM0030 MOD/SEV TURB BLW 5000FT TL0300 FM0300 MOD TURB BLW 5000FT
Conditions at: YSCB (CANBERRA (CIV/MI, AU) observed 0030 UTC 24 August 2019
Temperature: 14.0°C (57°F)
Dewpoint: -1.0°C (30°F) [RH = 36%]
Pressure (altimeter): 30.12 inches Hg (1020.0 mb)
Winds: from the NNW (330 degrees) at 15 MPH (13 knots; 6.7 m/s)
Visibility: 6 or more miles (10+ km)
Ceiling: at least 12,000 feet AGL
Clouds: sky clear below 12,000 feet AGL
Weather: no significant weather observed at this time

METAR text: YSCB 240000Z AUTO 32012KT 9999 // NCD 13/M00 Q1020 FM0030 30016G26KT CAVOK FM0000 MOD/SEV TURB BLW 5000FT
Conditions at: YSCB (CANBERRA (CIV/MI, AU) observed 0000 UTC 24 August 2019
Temperature: 13.0°C (55°F)
Dewpoint: 0.0°C (32°F) [RH = 41%]
Pressure (altimeter): 30.12 inches Hg (1020.0 mb)
Winds: from the NW (320 degrees) at 14 MPH (12 knots; 6.2 m/s)
Visibility: 6 or more miles (10+ km)
Ceiling: at least 12,000 feet AGL
Clouds: sky clear below 12,000 feet AGL
Weather: no significant weather observed at this time

METAR text: YSCB 232330Z AUTO 31005KT 9999 // NCD 12/00 Q1020 RF00.0/000.0 FM0100 30016G26KT CAVOK FM2330 MOD/SEV TURB BLW 5000FT
Conditions at: YSCB (CANBERRA (CIV/MI, AU) observed 2330 UTC 23 August 2019
Temperature: 12.0°C (54°F)
Dewpoint: 0.0°C (32°F) [RH = 44%]
Pressure (altimeter): 30.12 inches Hg (1020.0 mb)
Winds: from the NW (310 degrees) at 6 MPH (5 knots; 2.6 m/s)
Visibility: 6 or more miles (10+ km)
Ceiling: at least 12,000 feet AGL
Clouds: sky clear below 12,000 feet AGL
Weather: no significant weather observed at this time

METAR text: YSCB 232300Z AUTO 00000KT 9999 // NCD 08/01 Q1021 FM0000 30016G26KT CAVOK FM2300 MOD/SEV TURB BLW 5000FT
Conditions at: YSCB (CANBERRA (CIV/MI, AU) observed 2300 UTC 23 August 2019
Temperature: 8.0°C (46°F)
Dewpoint: 1.0°C (34°F) [RH = 61%]
Pressure (altimeter): 30.15 inches Hg (1021.0 mb)
Winds: calm
Visibility: 6 or more miles (10+ km)
Ceiling: at least 12,000 feet AGL
Clouds: sky clear below 12,000 feet AGL
Weather: no significant weather observed at this time

METAR text: YSCB 232230Z AUTO 19002KT 9999 // NCD 03/M01 Q1021 RF00.0/000.0 FM2230 MOD/SEV TURB BLW 5000FT
Conditions at: YSCB (CANBERRA (CIV/MI, AU) observed 2230 UTC 23 August 2019
Temperature: 3.0°C (37°F)
Dewpoint: -1.0°C (30°F) [RH = 75%]
Pressure (altimeter): 30.15 inches Hg (1021.0 mb)
Winds: from the S (190 degrees) at 2 MPH (2 knots; 1.0 m/s)
Visibility: 6 or more miles (10+ km)
Ceiling: at least 12,000 feet AGL
Clouds: sky clear below 12,000 feet AGL
Weather: no significant weather observed at this time

METAR text: YSCB 232200Z AUTO 35003KT 9999 // NCD 01/M02 Q1021 FM2200 MOD/SEV TURB BLW 8000FT
Conditions at: YSCB (CANBERRA (CIV/MI, AU) observed 2200 UTC 23 August 2019
Temperature: 1.0°C (34°F)
Dewpoint: -2.0°C (28°F) [RH = 80%]
Pressure (altimeter): 30.15 inches Hg (1021.0 mb)
Winds: from the N (350 degrees) at 3 MPH (3 knots; 1.5 m/s)
Visibility: 6 or more miles (10+ km)
Ceiling: at least 12,000 feet AGL
Clouds: sky clear below 12,000 feet AGL
Weather: no significant weather observed at this time

METAR text: YSCB 232130Z AUTO 00000KT 9999 // NCD M02/M04 Q1021 RF00.0/000.0 FM2100 MOD/SEV TURB BLW 8000FT
Conditions at: YSCB (CANBERRA (CIV/MI, AU) observed 2130 UTC 23 August 2019
Temperature: -2.0°C (28°F)
Dewpoint: -4.0°C (25°F) [RH = 86%]
Pressure (altimeter): 30.15 inches Hg (1021.0 mb)
Winds: calm
Visibility: 6 or more miles (10+ km)
Ceiling: at least 12,000 feet AGL
Clouds: sky clear below 12,000 feet AGL
Weather: no significant weather observed at this time

METAR text: YSCB 232100Z AUTO 35002KT 9999 // NCD M03/M05 Q1021 FM2100 MOD/SEV TURB BLW 8000FT
Conditions at: YSCB (CANBERRA (CIV/MI, AU) observed 2100 UTC 23 August 2019
Temperature: -3.0°C (27°F)
Dewpoint: -5.0°C (23°F) [RH = 86%]
Pressure (altimeter): 30.15 inches Hg (1021.0 mb)
Winds: from the N (350 degrees) at 2 MPH (2 knots; 1.0 m/s)
Visibility: 6 or more miles (10+ km)
Ceiling: at least 12,000 feet AGL
Clouds: sky clear below 12,000 feet AGL
Weather: no significant weather observed at this time

METAR text: YSCB 232030Z AUTO 09004KT 9999 // NCD M04/M05 Q1021 RF00.0/000.0
Conditions at: YSCB (CANBERRA (CIV/MI, AU) observed 2030 UTC 23 August 2019
Temperature: -4.0°C (25°F)
Dewpoint: -5.0°C (23°F) [RH = 93%]
Pressure (altimeter): 30.15 inches Hg (1021.0 mb)
Winds: from the E (90 degrees) at 5 MPH (4 knots; 2.1 m/s)
Visibility: 6 or more miles (10+ km)
Ceiling: at least 12,000 feet AGL
Clouds: sky clear below 12,000 feet AGL
Weather: no significant weather observed at this time

METAR text: YSCB 232000Z AUTO 14001KT 9999 // NCD M05/M06 Q1021
Conditions at: YSCB (CANBERRA (CIV/MI, AU) observed 2000 UTC 23 August 2019
Temperature: -5.0°C (23°F)
Dewpoint: -6.0°C (21°F) [RH = 93%]
Pressure (altimeter): 30.15 inches Hg (1021.0 mb)
Winds: from the SE (140 degrees) at 1 MPH (1 knots; 0.5 m/s)
Visibility: 6 or more miles (10+ km)
Ceiling: at least 12,000 feet AGL
Clouds: sky clear below 12,000 feet AGL
Weather: no significant weather observed at this time

METAR text: YSCB 231930Z AUTO 00000KT 9999 // NCD M05/M06 Q1020 RF00.0/000.0
Conditions at: YSCB (CANBERRA (CIV/MI, AU) observed 1930 UTC 23 August 2019
Temperature: -5.0°C (23°F)
Dewpoint: -6.0°C (21°F) [RH = 93%]
Pressure (altimeter): 30.12 inches Hg (1020.0 mb)
Winds: calm
Visibility: 6 or more miles (10+ km)
Ceiling: at least 12,000 feet AGL
Clouds: sky clear below 12,000 feet AGL
Weather: no significant weather observed at this time

METAR text: YSCB 231900Z AUTO 00000KT 9999 // NCD M03/M05 Q1020
Conditions at: YSCB (CANBERRA (CIV/MI, AU) observed 1900 UTC 23 August 2019
Temperature: -3.0°C (27°F)
Dewpoint: -5.0°C (23°F) [RH = 86%]
Pressure (altimeter): 30.12 inches Hg (1020.0 mb)
Winds: calm
Visibility: 6 or more miles (10+ km)
Ceiling: at least 12,000 feet AGL
Clouds: sky clear below 12,000 feet AGL
Weather: no significant weather observed at this time

METAR text: YSCB 231830Z AUTO 00000KT 9999 // NCD M04/M07 Q1021 RF00.0/000.0
Conditions at: YSCB (CANBERRA (CIV/MI, AU) observed 1830 UTC 23 August 2019
Temperature: -4.0°C (25°F)
Dewpoint: -7.0°C (19°F) [RH = 80%]
Pressure (altimeter): 30.15 inches Hg (1021.0 mb)
Winds: calm
Visibility: 6 or more miles (10+ km)
Ceiling: at least 12,000 feet AGL
Clouds: sky clear below 12,000 feet AGL
Weather: no significant weather observed at this time

METAR text: YSCB 231800Z AUTO 00000KT 9999 // NCD M04/M05 Q1021
Conditions at: YSCB (CANBERRA (CIV/MI, AU) observed 1800 UTC 23 August 2019
Temperature: -4.0°C (25°F)
Dewpoint: -5.0°C (23°F) [RH = 93%]
Pressure (altimeter): 30.15 inches Hg (1021.0 mb)
Winds: calm
Visibility: 6 or more miles (10+ km)
Ceiling: at least 12,000 feet AGL
Clouds: sky clear below 12,000 feet AGL
Weather: no significant weather observed at this time

METAR text: YSCB 231730Z AUTO 00000KT 9999 // NCD M03/M05 Q1021 RF00.0/000.0
Conditions at: YSCB (CANBERRA (CIV/MI, AU) observed 1730 UTC 23 August 2019
Temperature: -3.0°C (27°F)
Dewpoint: -5.0°C (23°F) [RH = 86%]
Pressure (altimeter): 30.15 inches Hg (1021.0 mb)
Winds: calm
Visibility: 6 or more miles (10+ km)
Ceiling: at least 12,000 feet AGL
Clouds: sky clear below 12,000 feet AGL
Weather: no significant weather observed at this time

METAR text: YSCB 231700Z AUTO 14001KT 9999 // NCD M02/M04 Q1021
Conditions at: YSCB (CANBERRA (CIV/MI, AU) observed 1700 UTC 23 August 2019
Temperature: -2.0°C (28°F)
Dewpoint: -4.0°C (25°F) [RH = 86%]
Pressure (altimeter): 30.15 inches Hg (1021.0 mb)
Winds: from the SE (140 degrees) at 1 MPH (1 knots; 0.5 m/s)
Visibility: 6 or more miles (10+ km)
Ceiling: at least 12,000 feet AGL
Clouds: sky clear below 12,000 feet AGL
Weather: no significant weather observed at this time

METAR text: YSCB 231630Z AUTO 14003KT 9999 // NCD M03/M04 Q1021 RF00.0/000.0
Conditions at: YSCB (CANBERRA (CIV/MI, AU) observed 1630 UTC 23 August 2019
Temperature: -3.0°C (27°F)
Dewpoint: -4.0°C (25°F) [RH = 93%]
Pressure (altimeter): 30.15 inches Hg (1021.0 mb)
Winds: from the SE (140 degrees) at 3 MPH (3 knots; 1.5 m/s)
Visibility: 6 or more miles (10+ km)
Ceiling: at least 12,000 feet AGL
Clouds: sky clear below 12,000 feet AGL
Weather: no significant weather observed at this time

METAR text: YSCB 231600Z AUTO 20003KT 9999 // NCD M02/M04 Q1021
Conditions at: YSCB (CANBERRA (CIV/MI, AU) observed 1600 UTC 23 August 2019
Temperature: -2.0°C (28°F)
Dewpoint: -4.0°C (25°F) [RH = 86%]
Pressure (altimeter): 30.15 inches Hg (1021.0 mb)
Winds: from the SSW (200 degrees) at 3 MPH (3 knots; 1.5 m/s)
Visibility: 6 or more miles (10+ km)
Ceiling: at least 12,000 feet AGL
Clouds: sky clear below 12,000 feet AGL
Weather: no significant weather observed at this time

METAR text: YSCB 231530Z AUTO 31004KT 210V360 9999 // NCD M02/M05 Q1022
Conditions at: YSCB (CANBERRA (CIV/MI, AU) observed 1530 UTC 23 August 2019
Temperature: -2.0°C (28°F)
Dewpoint: -5.0°C (23°F) [RH = 80%]
Pressure (altimeter): 30.18 inches Hg (1022.0 mb)
Winds: from the NW (310 degrees) at 5 MPH (4 knots; 2.1 m/s)
Visibility: 6 or more miles (10+ km)
Ceiling: at least 12,000 feet AGL
Clouds: sky clear below 12,000 feet AGL
Weather: no significant weather observed at this time

METAR text: YSCB 231500Z AUTO 14004KT 9999 // NCD M02/M04 Q1022
Conditions at: YSCB (CANBERRA (CIV/MI, AU) observed 1500 UTC 23 August 2019
Temperature: -2.0°C (28°F)
Dewpoint: -4.0°C (25°F) [RH = 86%]
Pressure (altimeter): 30.18 inches Hg (1022.0 mb)
Winds: from the SE (140 degrees) at 5 MPH (4 knots; 2.1 m/s)
Visibility: 6 or more miles (10+ km)
Ceiling: at least 12,000 feet AGL
Clouds: sky clear below 12,000 feet AGL
Weather: no significant weather observed at this time

METAR text: YSCB 231430Z AUTO 15004KT 9999 // NCD M02/M05 Q1022 RF00.0/000.0
Conditions at: YSCB (CANBERRA (CIV/MI, AU) observed 1430 UTC 23 August 2019
Temperature: -2.0°C (28°F)
Dewpoint: -5.0°C (23°F) [RH = 80%]
Pressure (altimeter): 30.18 inches Hg (1022.0 mb)
Winds: from the SSE (150 degrees) at 5 MPH (4 knots; 2.1 m/s)
Visibility: 6 or more miles (10+ km)
Ceiling: at least 12,000 feet AGL
Clouds: sky clear below 12,000 feet AGL
Weather: no significant weather observed at this time

METAR text: YSCB 231400Z AUTO 14002KT 9999 // NCD M01/M04 Q1022
Conditions at: YSCB (CANBERRA (CIV/MI, AU) observed 1400 UTC 23 August 2019
Temperature: -1.0°C (30°F)
Dewpoint: -4.0°C (25°F) [RH = 80%]
Pressure (altimeter): 30.18 inches Hg (1022.0 mb)
Winds: from the SE (140 degrees) at 2 MPH (2 knots; 1.0 m/s)
Visibility: 6 or more miles (10+ km)
Ceiling: at least 12,000 feet AGL
Clouds: sky clear below 12,000 feet AGL
Weather: no significant weather observed at this time

METAR text: YSCB 231330Z AUTO 16003KT 9999 // NCD M00/M04 Q1022 RF00.0/000.0
Conditions at: YSCB (CANBERRA (CIV/MI, AU) observed 1330 UTC 23 August 2019
Temperature: 0.0°C (32°F)
Dewpoint: -4.0°C (25°F) [RH = 74%]
Pressure (altimeter): 30.18 inches Hg (1022.0 mb)
Winds: from the SSE (160 degrees) at 3 MPH (3 knots; 1.5 m/s)
Visibility: 6 or more miles (10+ km)
Ceiling: at least 12,000 feet AGL
Clouds: sky clear below 12,000 feet AGL
Weather: no significant weather observed at this time

METAR text: YSCB 231300Z AUTO 13005KT 9999 // NCD M01/M05 Q1023
Conditions at: YSCB (CANBERRA (CIV/MI, AU) observed 1300 UTC 23 August 2019
Temperature: -1.0°C (30°F)
Dewpoint: -5.0°C (23°F) [RH = 74%]
Pressure (altimeter): 30.21 inches Hg (1023.0 mb)
Winds: from the SE (130 degrees) at 6 MPH (5 knots; 2.6 m/s)
Visibility: 6 or more miles (10+ km)
Ceiling: at least 12,000 feet AGL
Clouds: sky clear below 12,000 feet AGL
Weather: no significant weather observed at this time

METAR text: YSCB 231230Z AUTO 13005KT 9999 // NCD 01/M03 Q1023 RF00.0/000.0
Conditions at: YSCB (CANBERRA (CIV/MI, AU) observed 1230 UTC 23 August 2019
Temperature: 1.0°C (34°F)
Dewpoint: -3.0°C (27°F) [RH = 75%]
Pressure (altimeter): 30.21 inches Hg (1023.0 mb)
Winds: from the SE (130 degrees) at 6 MPH (5 knots; 2.6 m/s)
Visibility: 6 or more miles (10+ km)
Ceiling: at least 12,000 feet AGL
Clouds: sky clear below 12,000 feet AGL
Weather: no significant weather observed at this time

METAR text: YSCB 231200Z AUTO 13005KT 9999 // NCD M00/M04 Q1023
Conditions at: YSCB (CANBERRA (CIV/MI, AU) observed 1200 UTC 23 August 2019
Temperature: 0.0°C (32°F)
Dewpoint: -4.0°C (25°F) [RH = 74%]
Pressure (altimeter): 30.21 inches Hg (1023.0 mb)
Winds: from the SE (130 degrees) at 6 MPH (5 knots; 2.6 m/s)
Visibility: 6 or more miles (10+ km)
Ceiling: at least 12,000 feet AGL
Clouds: sky clear below 12,000 feet AGL
Weather: no significant weather observed at this time

METAR text: YSCB 231130Z AUTO 17004KT 160V220 9999 // NCD 02/M03 Q1023 RF00.0/000.0
Conditions at: YSCB (CANBERRA (CIV/MI, AU) observed 1130 UTC 23 August 2019
Temperature: 2.0°C (36°F)
Dewpoint: -3.0°C (27°F) [RH = 69%]
Pressure (altimeter): 30.21 inches Hg (1023.0 mb)
Winds: from the S (170 degrees) at 5 MPH (4 knots; 2.1 m/s)
Visibility: 6 or more miles (10+ km)
Ceiling: at least 12,000 feet AGL
Clouds: sky clear below 12,000 feet AGL
Weather: no significant weather observed at this time

METAR text: YSCB 231100Z AUTO 34002KT 9999 // NCD 05/M02 Q1023
Conditions at: YSCB (CANBERRA (CIV/MI, AU) observed 1100 UTC 23 August 2019
Temperature: 5.0°C (41°F)
Dewpoint: -2.0°C (28°F) [RH = 60%]
Pressure (altimeter): 30.21 inches Hg (1023.0 mb)
Winds: from the NNW (340 degrees) at 2 MPH (2 knots; 1.0 m/s)
Visibility: 6 or more miles (10+ km)
Ceiling: at least 12,000 feet AGL
Clouds: sky clear below 12,000 feet AGL
Weather: no significant weather observed at this time

METAR text: YSCB 231030Z AUTO 07002KT 9999 // NCD 03/M04 Q1024 RF00.0/000.0
Conditions at: YSCB (CANBERRA (CIV/MI, AU) observed 1030 UTC 23 August 2019
Temperature: 3.0°C (37°F)
Dewpoint: -4.0°C (25°F) [RH = 60%]
Pressure (altimeter): 30.24 inches Hg (1024.0 mb)
Winds: from the ENE (70 degrees) at 2 MPH (2 knots; 1.0 m/s)
Visibility: 6 or more miles (10+ km)
Ceiling: at least 12,000 feet AGL
Clouds: sky clear below 12,000 feet AGL
Weather: no significant weather observed at this time

METAR text: YSCB 231000Z AUTO 04005KT 9999 // NCD 05/M04 Q1024
Conditions at: YSCB (CANBERRA (CIV/MI, AU) observed 1000 UTC 23 August 2019
Temperature: 5.0°C (41°F)
Dewpoint: -4.0°C (25°F) [RH = 52%]
Pressure (altimeter): 30.24 inches Hg (1024.0 mb)
Winds: from the NE (40 degrees) at 6 MPH (5 knots; 2.6 m/s)
Visibility: 6 or more miles (10+ km)
Ceiling: at least 12,000 feet AGL
Clouds: sky clear below 12,000 feet AGL
Weather: no significant weather observed at this time

METAR text: YSCB 230930Z AUTO 36006KT 9999 // NCD 07/M03 Q1023 RF00.0/000.0
Conditions at: YSCB (CANBERRA (CIV/MI, AU) observed 0930 UTC 23 August 2019
Temperature: 7.0°C (45°F)
Dewpoint: -3.0°C (27°F) [RH = 49%]
Pressure (altimeter): 30.21 inches Hg (1023.0 mb)
Winds: from the N (360 degrees) at 7 MPH (6 knots; 3.1 m/s)
Visibility: 6 or more miles (10+ km)
Ceiling: at least 12,000 feet AGL
Clouds: sky clear below 12,000 feet AGL
Weather: no significant weather observed at this time

METAR text: YSCB 230900Z AUTO 01007KT 9999 // NCD 07/M03 Q1023
Conditions at: YSCB (CANBERRA (CIV/MI, AU) observed 0900 UTC 23 August 2019
Temperature: 7.0°C (45°F)
Dewpoint: -3.0°C (27°F) [RH = 49%]
Pressure (altimeter): 30.21 inches Hg (1023.0 mb)
Winds: from the N (10 degrees) at 8 MPH (7 knots; 3.6 m/s)
Visibility: 6 or more miles (10+ km)
Ceiling: at least 12,000 feet AGL
Clouds: sky clear below 12,000 feet AGL
Weather: no significant weather observed at this time

METAR text: YSCB 230830Z AUTO 36008KT 9999 // NCD 08/M02 Q1023 RF00.0/000.0
Conditions at: YSCB (CANBERRA (CIV/MI, AU) observed 0830 UTC 23 August 2019
Temperature: 8.0°C (46°F)
Dewpoint: -2.0°C (28°F) [RH = 49%]
Pressure (altimeter): 30.21 inches Hg (1023.0 mb)
Winds: from the N (360 degrees) at 9 MPH (8 knots; 4.1 m/s)
Visibility: 6 or more miles (10+ km)
Ceiling: at least 12,000 feet AGL
Clouds: sky clear below 12,000 feet AGL
Weather: no significant weather observed at this time

METAR text: YSCB 230800Z AUTO 36011KT 9999 // NCD 09/M03 Q1023
Conditions at: YSCB (CANBERRA (CIV/MI, AU) observed 0800 UTC 23 August 2019
Temperature: 9.0°C (48°F)
Dewpoint: -3.0°C (27°F) [RH = 43%]
Pressure (altimeter): 30.21 inches Hg (1023.0 mb)
Winds: from the N (360 degrees) at 13 MPH (11 knots; 5.7 m/s)
Visibility: 6 or more miles (10+ km)
Ceiling: at least 12,000 feet AGL
Clouds: sky clear below 12,000 feet AGL
Weather: no significant weather observed at this time

METAR text: YSCB 230730Z AUTO 35012KT 9999 // NCD 10/M04 Q1023 RF00.0/000.0
Conditions at: YSCB (CANBERRA (CIV/MI, AU) observed 0730 UTC 23 August 2019
Temperature: 10.0°C (50°F)
Dewpoint: -4.0°C (25°F) [RH = 37%]
Pressure (altimeter): 30.21 inches Hg (1023.0 mb)
Winds: from the N (350 degrees) at 14 MPH (12 knots; 6.2 m/s)
Visibility: 6 or more miles (10+ km)
Ceiling: at least 12,000 feet AGL
Clouds: sky clear below 12,000 feet AGL
Weather: no significant weather observed at this time

METAR text: YSCB 230700Z AUTO 35012KT 9999 // NCD 12/M03 Q1023
Conditions at: YSCB (CANBERRA (CIV/MI, AU) observed 0700 UTC 23 August 2019
Temperature: 12.0°C (54°F)
Dewpoint: -3.0°C (27°F) [RH = 35%]
Pressure (altimeter): 30.21 inches Hg (1023.0 mb)
Winds: from the N (350 degrees) at 14 MPH (12 knots; 6.2 m/s)
Visibility: 6 or more miles (10+ km)
Ceiling: at least 12,000 feet AGL
Clouds: sky clear below 12,000 feet AGL
Weather: no significant weather observed at this time

METAR text: YSCB 230630Z AUTO 35013KT 9999 // NCD 13/M03 Q1023 RF00.0/000.0
Conditions at: YSCB (CANBERRA (CIV/MI, AU) observed 0630 UTC 23 August 2019
Temperature: 13.0°C (55°F)
Dewpoint: -3.0°C (27°F) [RH = 33%]
Pressure (altimeter): 30.21 inches Hg (1023.0 mb)
Winds: from the N (350 degrees) at 15 MPH (13 knots; 6.7 m/s)
Visibility: 6 or more miles (10+ km)
Ceiling: at least 12,000 feet AGL
Clouds: sky clear below 12,000 feet AGL
Weather: no significant weather observed at this time

METAR text: YSCB 230600Z AUTO 35012KT 9999 // NCD 13/M02 Q1023
Conditions at: YSCB (CANBERRA (CIV/MI, AU) observed 0600 UTC 23 August 2019
Temperature: 13.0°C (55°F)
Dewpoint: -2.0°C (28°F) [RH = 35%]
Pressure (altimeter): 30.21 inches Hg (1023.0 mb)
Winds: from the N (350 degrees) at 14 MPH (12 knots; 6.2 m/s)
Visibility: 6 or more miles (10+ km)
Ceiling: at least 12,000 feet AGL
Clouds: sky clear below 12,000 feet AGL
Weather: no significant weather observed at this time

METAR text: YSCB 230530Z AUTO 35012KT 9999 // NCD 14/M03 Q1023 RF00.0/000.0 NOSIG RMK USE TAF FOR ARRIVALS AFTER 0600Z
Conditions at: YSCB (CANBERRA (CIV/MI, AU) observed 0530 UTC 23 August 2019
Temperature: 14.0°C (57°F)
Dewpoint: -3.0°C (27°F) [RH = 31%]
Pressure (altimeter): 30.21 inches Hg (1023.0 mb)
Winds: from the N (350 degrees) at 14 MPH (12 knots; 6.2 m/s)
Visibility: 6 or more miles (10+ km)
Ceiling: at least 12,000 feet AGL
Clouds: sky clear below 12,000 feet AGL
Weather: no significant weather observed at this time

METAR text: YSCB 230500Z AUTO 35010KT 9999 // NCD 14/M04 Q1023 NOSIG
Conditions at: YSCB (CANBERRA (CIV/MI, AU) observed 0500 UTC 23 August 2019
Temperature: 14.0°C (57°F)
Dewpoint: -4.0°C (25°F) [RH = 28%]
Pressure (altimeter): 30.21 inches Hg (1023.0 mb)
Winds: from the N (350 degrees) at 12 MPH (10 knots; 5.1 m/s)
Visibility: 6 or more miles (10+ km)
Ceiling: at least 12,000 feet AGL
Clouds: sky clear below 12,000 feet AGL
Weather: no significant weather observed at this time

METAR text: YSCB 230430Z AUTO 34011KT 9999 // NCD 14/M04 Q1023 RF00.0/000.0 NOSIG RMK USE TAF FOR ARRIVALS AFTER 0600Z
Conditions at: YSCB (CANBERRA (CIV/MI, AU) observed 0430 UTC 23 August 2019
Temperature: 14.0°C (57°F)
Dewpoint: -4.0°C (25°F) [RH = 28%]
Pressure (altimeter): 30.21 inches Hg (1023.0 mb)
Winds: from the NNW (340 degrees) at 13 MPH (11 knots; 5.7 m/s)
Visibility: 6 or more miles (10+ km)
Ceiling: at least 12,000 feet AGL
Clouds: sky clear below 12,000 feet AGL
Weather: no significant weather observed at this time

METAR text: YSCB 230400Z AUTO 33009KT 9999 // NCD 14/M03 Q1023 NOSIG
Conditions at: YSCB (CANBERRA (CIV/MI, AU) observed 0400 UTC 23 August 2019
Temperature: 14.0°C (57°F)
Dewpoint: -3.0°C (27°F) [RH = 31%]
Pressure (altimeter): 30.21 inches Hg (1023.0 mb)
Winds: from the NNW (330 degrees) at 10 MPH (9 knots; 4.6 m/s)
Visibility: 6 or more miles (10+ km)
Ceiling: at least 12,000 feet AGL
Clouds: sky clear below 12,000 feet AGL
Weather: no significant weather observed at this time

Forecast for: YSCB (CANBERRA (CIV/MI, AU)
Text: TAF YSCB 241036Z 2412/2512 30008KT CAVOK
Forecast period: 1200 to 1800 UTC 24 August 2019
Forecast type: FROM: standard forecast or significant change
Winds: from the WNW (300 degrees) at 9 MPH (8 knots; 4.1 m/s)
Visibility: 6 or more miles 10+ km)
Ceiling: unknown
Clouds: missing
Weather: NSW  (no significant weather)
Text: FM241800 VRB03KT CAVOK
Forecast period: 1800 UTC 24 August 2019 to 0000 UTC 25 August 2019
Forecast type: FROM: standard forecast or significant change
Winds: variable direction winds at 3 MPH (3 knots; 1.5 m/s)
Visibility: 6 or more miles 10+ km)
Ceiling: unknown
Clouds: missing
Weather: NSW  (no significant weather)
Text: FM250000 31010KT CAVOK
Forecast period: 0000 to 0900 UTC 25 August 2019
Forecast type: FROM: standard forecast or significant change
Winds: from the NW (310 degrees) at 12 MPH (10 knots; 5.1 m/s)
Visibility: 6 or more miles 10+ km)
Ceiling: unknown
Clouds: missing
Weather: NSW  (no significant weather)
Text: FM250900 10005KT 9999 SCT020
Forecast period: 0900 to 1100 UTC 25 August 2019
Forecast type: FROM: standard forecast or significant change
Winds: from the E (100 degrees) at 6 MPH (5 knots; 2.6 m/s)
Visibility: 6 or more miles 10+ km)
Ceiling: at least 12,000 feet AGL
Clouds: scattered clouds at 2000 feet AGL
Weather: no significant weather forecast for this period
Text: FM251100 10005KT 9999 SCT015 BKN030
Forecast period: 1100 to 1200 UTC 25 August 2019
Forecast type: FROM: standard forecast or significant change
Winds: from the E (100 degrees) at 6 MPH (5 knots; 2.6 m/s)
Visibility: 6 or more miles 10+ km)
Ceiling: 3000 feet AGL
Clouds: scattered clouds at 1500 feet AGL
broken clouds at 3000 feet AGL
Weather: no significant weather forecast for this period